East Rochester, NY (14445)

11:39 PM EDT on October 24, 2014 (GMT -0400)
Crystal Springs | Change Station
CLOSE
Current Station
Personal Weather Station
Location: Fairport, NY
Elevation: 432 ft
Nearby Weather Stations

Elev 432 ft 43.09 °N, 77.47 °W | Updated 5 seconds ago

Mostly Cloudy
Mostly Cloudy
44.3 °F
Feels Like 44 °F
N
0.0
Wind Variable Wind from SSW
Gusts 0.0 mph

Today
High -- | Low -- °F
--% Chance of Precip.
Yesterday
High -- | Low -- °F
Precip. -- in
7:34 AM 6:13 PM
New Moon, 2% visible
Pressure 29.95 in
Visibility 10.0 miles
Clouds Mostly Cloudy 8000 ft
Windchill 44 °F
Dew Point 42 °F
Humidity 90%
Rainfall 0.00 in
Snow Depth Not available.
UV 0 out of 12
Pollen 1.10 out of 12
Air Quality Not available.
Flu Activity Sporadic
METAR KROC 250254Z 22005KT 10SM BKN080 08/06 A2993 RMK AO2 SLP140 T00830061 58005

More Conditions Fewer Conditions

Pressure 29.95 in
Visibility 10.0 miles
Clouds Mostly Cloudy 8000 ft
Windchill 44 °F
Dew Point 42 °F
Humidity 90%
Rainfall 0.00 in
Snow Depth Not available.
UV 0 out of 12
Pollen 1.10 out of 12
Air Quality Not available.
Flu Activity Sporadic
METAR KROC 250254Z 22005KT 10SM BKN080 08/06 A2993 RMK AO2 SLP140 T00830061 58005

More Conditions Fewer Conditions

10-Day Weather Forecast

Almanac

Astronomy

Oct. 24, 2014 Rise Set
Actual Time 7:34 AM EDT 6:13 PM EDT
Civil Twilight 7:05 AM EDT 6:42 PM EDT
Nautical Twilight 6:32 AM EDT 7:15 PM EDT
Astronomical Twilight 5:59 AM EDT 7:48 PM EDT
Moon 8:12 AM EDT (10/24) 6:50 PM EDT (10/24)
Length of Visible Light 11h 36m
Length of Day
10h 38m
Tomorrow will be 2m 44s shorter.
New Moon, 2% of the Moon is Illuminated
Today
New Moon
Oct 30
First Quarter
Nov 6
Full
Nov 14
Last Quarter
Nov 22
New

Today's Extremes

State Highs State Lows

Community

WunderPhotos

Upload Photos

1,764,771 photos uploaded!

Nearby

Air Quality

  Air Quality AQ Index Pollutant
Friday Good
PM2.5
Saturday Good
PM2.5
Sunday Good
PM2.5
Monday Good
PM2.5

Snow Depth

Station Depth Elevation
No new snow has been reported.

Earthquake Activity

City Distance Mag. Time & Date
No recent earthquake activity has been reported nearby.
Minimum magnitude displayed is 2.5.

Coastal Water Temperatures

Place Temperature
Buffalo, NY 57.0 °F
Alexandria Bay, NY 55.9 °F

Nearby Weather Stations